createdAt,value
2022-08-27T00:00:31.959Z,9.73
2022-08-27T00:03:03.661Z,12.40
2022-08-27T00:05:36.862Z,9.85
2022-08-27T00:08:08.898Z,10.45
2022-08-27T00:10:39.361Z,9.65
2022-08-27T00:13:09.126Z,9.55
2022-08-27T00:15:39.707Z,13.95
2022-08-27T00:18:10.122Z,9.18
2022-08-27T00:20:40.421Z,9.23
2022-08-27T00:23:11.420Z,14.63
2022-08-27T00:25:42.034Z,9.73
2022-08-27T00:28:12.893Z,10.30
2022-08-27T00:30:47.794Z,11.45
2022-08-27T00:33:21.483Z,10.20
2022-08-27T00:35:52.838Z,14.20
2022-08-27T00:38:22.161Z,9.48
2022-08-27T00:40:53.224Z,9.85
2022-08-27T00:43:28.789Z,7.83
2022-08-27T00:46:08.076Z,10.70
2022-08-27T00:48:38.329Z,11.75
2022-08-27T00:51:08.689Z,9.55
2022-08-27T00:53:39.304Z,8.75
2022-08-27T00:56:17.564Z,7.90
2022-08-27T00:58:53.966Z,10.03
2022-08-27T01:01:28.524Z,10.03
2022-08-27T01:04:01.289Z,9.63
2022-08-27T01:06:34.577Z,9.98
2022-08-27T01:09:09.077Z,11.12
2022-08-27T01:11:39.038Z,9.48
2022-08-27T01:14:09.801Z,8.25
2022-08-27T01:16:44.703Z,13.08
2022-08-27T01:19:35.715Z,11.93
2022-08-27T01:22:38.071Z,12.85
2022-08-27T01:25:10.989Z,10.63
2022-08-27T01:27:42.045Z,9.58
2022-08-27T01:30:13.660Z,12.13
2022-08-27T01:32:44.707Z,10.58
2022-08-27T01:35:14.526Z,10.13
2022-08-27T01:37:45.368Z,10.43
2022-08-27T01:40:19.156Z,11.38
2022-08-27T01:42:51.543Z,8.45
2022-08-27T01:45:27.737Z,11.53
2022-08-27T01:47:58.410Z,10.40
2022-08-27T01:50:36.293Z,12.63
2022-08-27T01:53:16.456Z,9.88
2022-08-27T01:55:48.502Z,10.75
2022-08-27T01:58:19.515Z,9.75
2022-08-27T02:00:56.085Z,12.15
2022-08-27T02:03:22.930Z,9.48
2022-08-27T02:05:53.199Z,14.35
2022-08-27T02:08:22.660Z,10.68
2022-08-27T02:10:54.125Z,13.80
2022-08-27T02:13:24.871Z,9.98
2022-08-27T02:15:56.838Z,10.15
2022-08-27T02:18:26.526Z,8.68
2022-08-27T02:20:55.828Z,11.15
2022-08-27T02:23:26.717Z,10.35
2022-08-27T02:25:56.454Z,12.70
2022-08-27T02:28:26.542Z,9.70
2022-08-27T02:30:57.100Z,16.10
2022-08-27T02:33:28.116Z,12.73
2022-08-27T02:35:58.750Z,11.35
2022-08-27T02:38:28.185Z,10.85
2022-08-27T02:40:58.795Z,11.12
2022-08-27T02:43:29.579Z,12.70
2022-08-27T02:46:01.235Z,11.48
2022-08-27T02:48:31.831Z,9.80
2022-08-27T02:51:02.663Z,12.85
2022-08-27T02:53:32.953Z,9.23
2022-08-27T02:56:03.402Z,10.03
2022-08-27T02:58:33.570Z,10.15
2022-08-27T03:01:03.083Z,10.45
2022-08-27T03:03:32.480Z,9.08
2022-08-27T03:06:04.429Z,9.35
2022-08-27T03:08:36.490Z,8.45
2022-08-27T03:11:09.670Z,10.63
2022-08-27T03:13:43.309Z,10.70
2022-08-27T03:16:13.338Z,10.48
2022-08-27T03:18:45.859Z,11.55
2022-08-27T03:21:24.197Z,10.18
2022-08-27T03:23:54.373Z,13.05
2022-08-27T03:26:24.343Z,9.70
2022-08-27T03:28:54.127Z,9.03
2022-08-27T03:31:28.388Z,8.78
2022-08-27T03:34:04.177Z,8.10
2022-08-27T03:36:34.909Z,10.78
2022-08-27T03:39:04.283Z,13.53
2022-08-27T03:41:45.441Z,11.08
2022-08-27T03:44:07.413Z,7.95
2022-08-27T03:46:37.753Z,9.48
2022-08-27T03:49:08.397Z,8.13
2022-08-27T03:51:40.804Z,8.70
2022-08-27T03:54:11.253Z,10.30
2022-08-27T03:56:41.428Z,8.80
2022-08-27T03:59:11.068Z,12.60
2022-08-27T04:01:42.589Z,11.15
2022-08-27T04:04:12.977Z,8.08
2022-08-27T04:06:43.086Z,9.18
2022-08-27T04:09:12.543Z,10.23
2022-08-27T04:11:43.296Z,11.08
2022-08-27T04:14:26.238Z,10.30
2022-08-27T04:16:48.179Z,11.83
2022-08-27T04:19:25.071Z,9.05
2022-08-27T04:21:54.783Z,9.25
2022-08-27T04:24:25.499Z,10.23
2022-08-27T04:26:55.501Z,10.10
2022-08-27T04:29:25.865Z,9.23
2022-08-27T04:31:56.312Z,9.98
2022-08-27T04:34:28.098Z,10.32
2022-08-27T04:36:59.283Z,11.80
2022-08-27T04:39:30.136Z,10.55
2022-08-27T04:42:02.875Z,11.60
2022-08-27T04:44:33.190Z,12.58
2022-08-27T04:47:04.322Z,8.70
2022-08-27T04:49:34.194Z,13.70
2022-08-27T04:52:05.328Z,8.50
2022-08-27T04:54:36.108Z,7.30
2022-08-27T04:57:08.047Z,9.65
2022-08-27T04:59:40.433Z,8.65
2022-08-27T05:02:13.542Z,13.35
2022-08-27T05:04:44.324Z,8.03
2022-08-27T05:07:14.230Z,9.38
2022-08-27T05:09:44.709Z,8.35
2022-08-27T05:12:15.083Z,10.45
2022-08-27T05:14:50.091Z,11.70
2022-08-27T05:17:21.909Z,11.40
2022-08-27T05:19:54.372Z,11.20
2022-08-27T05:22:25.000Z,9.95
2022-08-27T05:24:54.949Z,12.18
2022-08-27T05:27:24.987Z,8.58
2022-08-27T05:29:55.882Z,9.20
2022-08-27T05:32:26.716Z,9.95
2022-08-27T05:34:56.798Z,10.08
2022-08-27T05:37:27.249Z,12.15
2022-08-27T05:39:57.618Z,9.10
2022-08-27T05:42:30.631Z,14.50
2022-08-27T05:45:00.637Z,11.05
2022-08-27T05:47:30.764Z,12.68
2022-08-27T05:50:01.589Z,12.80
2022-08-27T05:52:32.159Z,9.95
2022-08-27T05:55:03.223Z,10.98
2022-08-27T05:57:33.827Z,8.38
2022-08-27T06:00:25.655Z,12.70
2022-08-27T06:02:56.888Z,12.30
2022-08-27T06:05:26.773Z,11.75
2022-08-27T06:07:59.638Z,12.60
2022-08-27T06:10:30.285Z,10.43
2022-08-27T06:13:01.110Z,14.43
2022-08-27T06:15:31.644Z,10.78
2022-08-27T06:18:03.163Z,16.62
2022-08-27T06:20:33.748Z,10.40
2022-08-27T06:23:04.280Z,11.05
2022-08-27T06:25:35.428Z,8.35
2022-08-27T06:28:06.692Z,13.72
2022-08-27T06:30:38.447Z,10.10
2022-08-27T06:33:08.956Z,8.50
2022-08-27T06:35:39.129Z,9.55
2022-08-27T06:38:08.620Z,11.10
2022-08-27T06:40:41.925Z,7.28
2022-08-27T06:43:13.854Z,12.28
2022-08-27T06:45:48.730Z,15.18
2022-08-27T06:48:18.972Z,12.23
2022-08-27T06:50:49.785Z,12.35
2022-08-27T06:53:19.413Z,8.23
2022-08-27T06:55:52.503Z,11.60
2022-08-27T06:58:21.759Z,11.55
2022-08-27T07:00:51.699Z,9.68
2022-08-27T07:03:23.358Z,8.45
2022-08-27T07:05:53.110Z,10.23
2022-08-27T07:08:22.889Z,8.95
2022-08-27T07:10:57.831Z,12.78
2022-08-27T07:13:30.063Z,8.45
2022-08-27T07:16:00.246Z,11.63
2022-08-27T07:18:31.033Z,10.98
2022-08-27T07:21:04.245Z,11.12
2022-08-27T07:23:34.859Z,9.83
2022-08-27T07:26:12.786Z,10.25
2022-08-27T07:28:43.443Z,13.83
2022-08-27T07:31:16.654Z,7.15
2022-08-27T07:33:53.142Z,10.35
2022-08-27T07:36:20.448Z,10.58
2022-08-27T07:38:57.019Z,12.65
2022-08-27T07:41:31.148Z,11.40
2022-08-27T07:44:16.174Z,7.78
2022-08-27T07:46:48.990Z,8.73
2022-08-27T07:49:18.973Z,12.40
2022-08-27T07:51:49.552Z,12.65
2022-08-27T07:54:18.955Z,12.25
2022-08-27T07:56:55.071Z,9.80
2022-08-27T07:59:24.275Z,9.60
2022-08-27T08:01:56.196Z,10.60
2022-08-27T08:04:27.546Z,12.03
2022-08-27T08:06:59.519Z,8.95
2022-08-27T08:09:31.439Z,12.18
2022-08-27T08:12:02.154Z,8.53
2022-08-27T08:14:32.572Z,16.32
2022-08-27T08:17:02.567Z,9.80
2022-08-27T08:19:34.006Z,9.55
2022-08-27T08:22:06.696Z,8.98
2022-08-27T08:24:38.341Z,13.75
2022-08-27T08:27:10.756Z,22.32
2022-08-27T08:29:42.722Z,11.70
2022-08-27T08:32:15.457Z,14.18
2022-08-27T08:34:45.804Z,9.00
2022-08-27T08:37:16.127Z,12.18
2022-08-27T08:39:46.931Z,13.50
2022-08-27T08:42:50.901Z,12.07
2022-08-27T08:45:17.141Z,12.78
2022-08-27T08:47:53.401Z,9.30
2022-08-27T08:50:39.376Z,11.60
2022-08-27T08:53:31.632Z,9.03
2022-08-27T08:56:05.516Z,10.70
2022-08-27T08:58:55.419Z,10.23
2022-08-27T09:01:25.606Z,10.50
2022-08-27T09:04:00.384Z,9.25
2022-08-27T09:07:06.031Z,11.55
2022-08-27T09:10:07.796Z,10.98
2022-08-27T09:12:39.539Z,15.45
2022-08-27T09:15:23.278Z,12.25
2022-08-27T09:17:54.200Z,9.08
2022-08-27T09:20:25.853Z,12.25
2022-08-27T09:23:12.142Z,11.48
2022-08-27T09:25:43.186Z,12.40
2022-08-27T09:28:34.873Z,12.68
2022-08-27T09:31:09.956Z,13.53
2022-08-27T09:33:55.060Z,12.33
2022-08-27T09:36:15.337Z,12.63
2022-08-27T09:39:01.506Z,13.48
2022-08-27T09:44:11.717Z,9.95
2022-08-27T09:46:54.728Z,14.95
2022-08-27T09:49:26.699Z,13.00
2022-08-27T09:51:57.400Z,11.12
2022-08-27T09:54:43.811Z,19.50
2022-08-27T09:57:15.450Z,20.10
2022-08-27T09:59:53.688Z,16.10
2022-08-27T10:02:25.509Z,21.73
2022-08-27T10:04:58.830Z,23.42
2022-08-27T10:07:56.074Z,19.95
2022-08-27T10:10:40.552Z,24.35
2022-08-27T10:13:29.830Z,21.05
2022-08-27T10:16:34.891Z,18.75
2022-08-27T10:19:27.555Z,25.37
2022-08-27T10:22:20.059Z,21.40
2022-08-27T10:25:33.830Z,22.52
2022-08-27T10:28:34.071Z,19.52
2022-08-27T10:31:14.686Z,24.47
2022-08-27T10:34:22.887Z,18.12
2022-08-27T10:37:01.245Z,23.22
2022-08-27T10:40:19.503Z,23.12
2022-08-27T10:43:02.773Z,18.23
2022-08-27T10:46:01.354Z,25.12
2022-08-27T10:48:51.600Z,17.90
2022-08-27T10:51:28.551Z,21.82
2022-08-27T10:54:46.167Z,23.47
2022-08-27T10:57:56.505Z,20.92
2022-08-27T11:00:21.279Z,32.03
2022-08-27T11:03:24.716Z,28.07
2022-08-27T11:05:54.308Z,20.68
2022-08-27T11:08:34.704Z,25.02
2022-08-27T11:12:03.166Z,19.65
2022-08-27T11:13:54.083Z,13.53
2022-08-27T11:16:29.877Z,18.45
2022-08-27T11:19:24.250Z,18.02
2022-08-27T11:22:27.623Z,15.28
2022-08-27T11:25:52.668Z,18.25
2022-08-27T11:28:30.020Z,16.80
2022-08-27T11:31:19.719Z,15.45
2022-08-27T11:34:15.470Z,17.45
2022-08-27T11:37:19.360Z,19.90
2022-08-27T11:40:31.802Z,15.65
2022-08-27T11:43:07.780Z,18.73
2022-08-27T11:45:38.477Z,16.13
2022-08-27T11:48:32.915Z,16.48
2022-08-27T11:51:19.035Z,13.83
2022-08-27T11:54:01.553Z,10.95
2022-08-27T11:56:37.657Z,11.97
2022-08-27T11:59:31.319Z,16.87
2022-08-27T12:02:27.763Z,20.10
2022-08-27T12:05:09.521Z,11.50
2022-08-27T12:07:43.820Z,13.98
2022-08-27T12:10:24.463Z,16.80
2022-08-27T12:13:21.348Z,8.43
2022-08-27T12:16:24.636Z,15.38
2022-08-27T12:19:23.733Z,19.52
2022-08-27T12:22:14.135Z,20.43
2022-08-27T12:24:55.762Z,14.13
2022-08-27T12:27:32.682Z,16.90
2022-08-27T12:30:10.242Z,12.78
2022-08-27T12:32:44.554Z,13.53
2022-08-27T12:35:24.121Z,12.30
2022-08-27T12:37:57.811Z,9.30
2022-08-27T12:40:30.961Z,11.93
2022-08-27T12:43:16.641Z,9.98
2022-08-27T12:45:52.780Z,9.55
2022-08-27T12:48:30.623Z,12.25
2022-08-27T12:51:06.870Z,8.40
2022-08-27T12:53:59.152Z,13.98
2022-08-27T12:56:54.626Z,6.90
2022-08-27T12:59:38.861Z,6.25
2022-08-27T13:02:25.610Z,8.55
2022-08-27T13:04:55.424Z,7.83
2022-08-27T13:07:34.930Z,8.70
2022-08-27T13:10:18.195Z,8.38
2022-08-27T13:12:49.126Z,13.05
2022-08-27T13:15:21.500Z,13.35
2022-08-27T13:17:50.580Z,11.85
2022-08-27T13:20:23.991Z,8.70
2022-08-27T13:22:53.640Z,7.05
2022-08-27T13:25:33.215Z,9.95
2022-08-27T13:28:15.902Z,9.90
2022-08-27T13:30:48.569Z,6.85
2022-08-27T13:33:29.516Z,8.10
2022-08-27T13:36:00.492Z,12.88
2022-08-27T13:38:33.266Z,11.38
2022-08-27T13:41:27.062Z,11.88
2022-08-27T13:43:59.346Z,8.73
2022-08-27T13:46:30.372Z,7.97
2022-08-27T13:49:00.574Z,7.25
2022-08-27T13:51:32.527Z,6.17
2022-08-27T13:54:17.683Z,7.53
2022-08-27T13:56:55.510Z,7.22
2022-08-27T13:59:27.782Z,7.00
2022-08-27T14:02:01.451Z,6.22
2022-08-27T14:04:53.028Z,9.85
2022-08-27T14:07:27.425Z,7.95
2022-08-27T14:10:03.527Z,8.53
2022-08-27T14:12:38.003Z,8.48
2022-08-27T14:15:35.348Z,5.85
2022-08-27T14:18:07.868Z,8.55
2022-08-27T14:20:37.815Z,9.18
2022-08-27T14:23:08.402Z,8.35
2022-08-27T14:25:39.701Z,7.87
2022-08-27T14:28:08.985Z,8.15
2022-08-27T14:30:38.337Z,10.55
2022-08-27T14:33:07.695Z,10.30
2022-08-27T14:35:39.502Z,10.32
2022-08-27T14:38:17.666Z,10.85
2022-08-27T14:40:48.609Z,8.13
2022-08-27T14:43:18.626Z,7.95
2022-08-27T14:45:49.174Z,8.33
2022-08-27T14:48:28.935Z,8.30
2022-08-27T14:51:02.197Z,9.48
2022-08-27T14:53:32.356Z,9.43
2022-08-27T14:56:02.908Z,10.23
2022-08-27T14:58:32.920Z,9.55
2022-08-27T15:01:03.598Z,9.88
2022-08-27T15:03:34.917Z,11.75
2022-08-27T15:06:07.092Z,6.03
2022-08-27T15:08:36.592Z,11.30
2022-08-27T15:11:06.070Z,10.20
2022-08-27T15:13:38.468Z,9.28
2022-08-27T15:16:08.822Z,11.45
2022-08-27T15:18:38.962Z,13.93
2022-08-27T15:21:10.114Z,11.35
2022-08-27T15:23:40.560Z,15.45
2022-08-27T15:26:11.097Z,8.83
2022-08-27T15:28:43.222Z,8.33
2022-08-27T15:31:14.581Z,10.43
2022-08-27T15:33:45.333Z,12.90
2022-08-27T15:36:15.027Z,11.60
2022-08-27T15:38:45.960Z,9.98
2022-08-27T15:41:16.688Z,12.15
2022-08-27T15:43:46.658Z,13.32
2022-08-27T15:46:16.672Z,12.15
2022-08-27T15:48:47.138Z,7.45
2022-08-27T15:51:17.524Z,10.00
2022-08-27T15:53:47.185Z,7.22
2022-08-27T15:56:19.824Z,10.32
2022-08-27T15:58:49.443Z,12.70
2022-08-27T16:01:24.261Z,12.75
2022-08-27T16:03:55.209Z,10.00
2022-08-27T16:06:25.344Z,7.70
2022-08-27T16:08:55.564Z,9.85
2022-08-27T16:11:25.619Z,10.18
2022-08-27T16:13:55.719Z,9.13
2022-08-27T16:16:28.363Z,13.93
2022-08-27T16:19:02.484Z,11.10
2022-08-27T16:21:34.784Z,12.35
2022-08-27T16:24:04.812Z,14.00
2022-08-27T16:26:34.551Z,10.48
2022-08-27T16:29:05.336Z,14.13
2022-08-27T16:31:36.934Z,12.07
2022-08-27T16:34:15.957Z,13.03
2022-08-27T16:36:45.641Z,16.65
2022-08-27T16:39:16.678Z,11.28
2022-08-27T16:41:46.934Z,11.78
2022-08-27T16:44:17.208Z,13.60
2022-08-27T16:46:47.499Z,12.68
2022-08-27T16:49:36.154Z,13.60
2022-08-27T16:52:08.019Z,11.73
2022-08-27T16:54:38.527Z,8.33
2022-08-27T16:57:08.696Z,14.35
2022-08-27T16:59:39.837Z,10.75
2022-08-27T17:02:14.428Z,12.85
2022-08-27T17:04:49.262Z,16.97
2022-08-27T17:07:19.781Z,13.83
2022-08-27T17:09:52.229Z,13.28
2022-08-27T17:12:24.288Z,15.30
2022-08-27T17:14:55.719Z,13.75
2022-08-27T17:17:27.751Z,13.78
2022-08-27T17:19:57.562Z,13.50
2022-08-27T17:22:27.627Z,14.65
2022-08-27T17:24:58.151Z,15.85
2022-08-27T17:27:28.645Z,13.70
2022-08-27T17:29:58.960Z,25.90
2022-08-27T17:32:28.997Z,15.48
2022-08-27T17:35:05.110Z,17.27
2022-08-27T17:37:32.998Z,13.93
2022-08-27T17:40:03.671Z,11.30
2022-08-27T17:42:34.049Z,18.27
2022-08-27T17:45:04.844Z,14.05
2022-08-27T17:47:35.703Z,14.73
2022-08-27T17:50:06.174Z,16.48
2022-08-27T17:52:38.839Z,13.03
2022-08-27T17:55:08.779Z,13.60
2022-08-27T17:57:41.091Z,10.32
2022-08-27T18:00:13.032Z,17.52
2022-08-27T18:02:48.619Z,10.80
2022-08-27T18:05:19.760Z,16.57
2022-08-27T18:07:50.683Z,13.13
2022-08-27T18:10:23.576Z,14.53
2022-08-27T18:12:55.351Z,14.98
2022-08-27T18:15:27.346Z,14.53
2022-08-27T18:17:58.484Z,16.10
2022-08-27T18:20:28.611Z,15.05
2022-08-27T18:22:58.119Z,12.25
2022-08-27T18:25:33.841Z,14.83
2022-08-27T18:28:04.117Z,15.40
2022-08-27T18:30:33.590Z,17.00
2022-08-27T18:33:04.898Z,17.40
2022-08-27T18:35:35.027Z,13.35
2022-08-27T18:38:06.060Z,13.53
2022-08-27T18:40:43.617Z,15.98
2022-08-27T18:43:14.592Z,17.73
2022-08-27T18:45:44.575Z,13.80
2022-08-27T18:48:17.346Z,14.55
2022-08-27T18:50:50.206Z,18.20
2022-08-27T18:53:22.518Z,12.85
2022-08-27T18:55:52.506Z,19.37
2022-08-27T18:58:21.857Z,20.65
2022-08-27T19:00:57.105Z,17.75
2022-08-27T19:03:39.874Z,15.30
2022-08-27T19:06:10.134Z,15.85
2022-08-27T19:08:40.090Z,17.50
2022-08-27T19:11:10.598Z,17.98
2022-08-27T19:13:40.629Z,17.10
2022-08-27T19:16:14.011Z,15.70
2022-08-27T19:18:43.169Z,14.07
2022-08-27T19:21:13.498Z,17.15
2022-08-27T19:23:44.173Z,16.07
2022-08-27T19:26:19.041Z,10.70
2022-08-27T19:28:48.500Z,15.53
2022-08-27T19:31:18.430Z,17.25
2022-08-27T19:33:48.374Z,17.80
2022-08-27T19:36:19.340Z,13.72
2022-08-27T19:38:50.712Z,18.87
2022-08-27T19:41:27.209Z,15.95
2022-08-27T19:43:53.552Z,16.23
2022-08-27T19:46:22.768Z,16.77
2022-08-27T19:48:52.933Z,15.28
2022-08-27T19:51:22.984Z,12.65
2022-08-27T19:53:52.830Z,19.80
2022-08-27T19:56:23.438Z,13.05
2022-08-27T19:58:56.818Z,17.10
2022-08-27T20:01:25.068Z,14.30
2022-08-27T20:03:54.101Z,16.48
2022-08-27T20:06:26.752Z,14.75
2022-08-27T20:08:56.524Z,22.85
2022-08-27T20:11:26.944Z,14.78
2022-08-27T20:13:58.378Z,20.40
2022-08-27T20:16:28.824Z,18.12
2022-08-27T20:19:01.318Z,15.05
2022-08-27T20:21:30.508Z,12.60
2022-08-27T20:23:59.705Z,17.05
2022-08-27T20:26:32.725Z,19.87
2022-08-27T20:29:02.698Z,13.70
2022-08-27T20:31:32.588Z,15.63
2022-08-27T20:34:04.359Z,13.22
2022-08-27T20:36:34.388Z,15.98
2022-08-27T20:39:04.934Z,15.23
2022-08-27T20:41:35.843Z,14.13
2022-08-27T20:44:06.443Z,17.30
2022-08-27T20:46:35.363Z,16.37
2022-08-27T20:49:07.404Z,14.38
2022-08-27T20:52:02.049Z,13.13
2022-08-27T20:54:07.748Z,13.25
2022-08-27T20:56:36.913Z,16.32
2022-08-27T20:59:25.773Z,13.15
2022-08-27T21:01:55.056Z,15.60
2022-08-27T21:04:25.308Z,10.93
2022-08-27T21:06:56.163Z,13.93
2022-08-27T21:09:27.518Z,13.40
2022-08-27T21:11:57.568Z,11.60
2022-08-27T21:14:26.695Z,14.07
2022-08-27T21:16:59.358Z,13.28
2022-08-27T21:19:28.844Z,13.80
2022-08-27T21:22:01.018Z,11.75
2022-08-27T21:24:31.143Z,13.55
2022-08-27T21:27:01.013Z,13.60
2022-08-27T21:29:31.534Z,9.93
2022-08-27T21:32:00.337Z,13.22
2022-08-27T21:34:30.991Z,13.65
2022-08-27T21:36:59.899Z,10.58
2022-08-27T21:39:28.708Z,11.45
2022-08-27T21:42:00.635Z,15.83
2022-08-27T21:44:30.824Z,12.00
2022-08-27T21:47:01.507Z,9.98
2022-08-27T21:49:32.354Z,20.12
2022-08-27T21:52:03.403Z,12.07
2022-08-27T21:54:37.273Z,13.43
2022-08-27T21:57:07.994Z,13.60
2022-08-27T21:59:44.544Z,12.82
2022-08-27T22:02:38.331Z,17.95
2022-08-27T22:04:46.983Z,14.15
2022-08-27T22:07:18.333Z,16.82
2022-08-27T22:09:48.473Z,15.05
2022-08-27T22:12:19.258Z,16.40
2022-08-27T22:14:48.803Z,10.82
2022-08-27T22:17:19.919Z,17.02
2022-08-27T22:19:49.354Z,20.27
2022-08-27T22:22:19.459Z,14.58
2022-08-27T22:24:50.450Z,13.68
2022-08-27T22:27:20.703Z,15.15
2022-08-27T22:29:50.684Z,14.10
2022-08-27T22:32:20.993Z,14.85
2022-08-27T22:34:50.229Z,17.87
2022-08-27T22:37:20.940Z,18.48
2022-08-27T22:39:50.555Z,12.65
2022-08-27T22:42:19.915Z,15.18
2022-08-27T22:44:49.455Z,13.65
2022-08-27T22:47:20.550Z,17.50
2022-08-27T22:49:52.916Z,12.65
2022-08-27T22:52:23.213Z,13.25
2022-08-27T22:54:54.850Z,15.75
2022-08-27T22:57:25.080Z,15.00
2022-08-27T22:59:54.935Z,15.88
2022-08-27T23:02:23.870Z,16.85
2022-08-27T23:04:55.545Z,14.38
2022-08-27T23:07:24.556Z,16.67
2022-08-27T23:09:53.993Z,16.35
2022-08-27T23:12:24.270Z,15.00
2022-08-27T23:14:54.275Z,15.70
2022-08-27T23:17:23.980Z,17.00
2022-08-27T23:19:56.080Z,13.85
2022-08-27T23:22:26.675Z,15.18
2022-08-27T23:25:13.750Z,18.23
2022-08-27T23:27:42.935Z,17.17
2022-08-27T23:30:13.534Z,12.45
2022-08-27T23:32:46.367Z,16.07
2022-08-27T23:35:15.240Z,15.60
2022-08-27T23:37:45.925Z,18.05
2022-08-27T23:40:15.298Z,21.17
2022-08-27T23:42:45.276Z,16.75
2022-08-27T23:45:18.462Z,16.60
2022-08-27T23:47:49.363Z,21.57
2022-08-27T23:50:19.390Z,21.40
2022-08-27T23:52:49.091Z,13.83
2022-08-27T23:55:18.586Z,14.43
2022-08-27T23:57:49.200Z,14.93
